sensor_id;sensor_type;location;lat;lon;timestamp;P1;durP1;ratioP1;P2;durP2;ratioP2
76117;SDS011;64851;50.232;20.364;2023-02-01T00:00:53;5.40;;;2.70;;
76117;SDS011;64851;50.232;20.364;2023-02-01T00:03:41;4.40;;;2.20;;
76117;SDS011;64851;50.232;20.364;2023-02-01T00:06:15;4.90;;;2.40;;
76117;SDS011;64851;50.232;20.364;2023-02-01T00:09:03;4.60;;;2.40;;
76117;SDS011;64851;50.232;20.364;2023-02-01T00:11:38;5.10;;;2.10;;
76117;SDS011;64851;50.232;20.364;2023-02-01T00:14:27;5.50;;;2.30;;
76117;SDS011;64851;50.232;20.364;2023-02-01T00:17:02;4.30;;;2.80;;
76117;SDS011;64851;50.232;20.364;2023-02-01T00:19:57;5.10;;;2.60;;
76117;SDS011;64851;50.232;20.364;2023-02-01T00:22:52;4.50;;;2.30;;
76117;SDS011;64851;50.232;20.364;2023-02-01T00:25:26;5.00;;;2.30;;
76117;SDS011;64851;50.232;20.364;2023-02-01T00:28:14;7.50;;;3.20;;
76117;SDS011;64851;50.232;20.364;2023-02-01T00:30:55;5.60;;;2.60;;
76117;SDS011;64851;50.232;20.364;2023-02-01T00:33:46;4.40;;;2.20;;
76117;SDS011;64851;50.232;20.364;2023-02-01T00:36:21;5.50;;;2.60;;
76117;SDS011;64851;50.232;20.364;2023-02-01T00:39:10;5.60;;;2.50;;
76117;SDS011;64851;50.232;20.364;2023-02-01T00:41:45;6.20;;;2.20;;
76117;SDS011;64851;50.232;20.364;2023-02-01T00:44:33;5.30;;;2.30;;
76117;SDS011;64851;50.232;20.364;2023-02-01T00:47:09;6.80;;;2.60;;
76117;SDS011;64851;50.232;20.364;2023-02-01T00:49:57;6.80;;;2.40;;
76117;SDS011;64851;50.232;20.364;2023-02-01T00:52:38;4.80;;;2.50;;
76117;SDS011;64851;50.232;20.364;2023-02-01T00:55:19;4.10;;;2.70;;
76117;SDS011;64851;50.232;20.364;2023-02-01T00:58:00;5.50;;;2.60;;
76117;SDS011;64851;50.232;20.364;2023-02-01T01:00:44;6.80;;;2.80;;
76117;SDS011;64851;50.232;20.364;2023-02-01T01:03:25;4.20;;;2.30;;
76117;SDS011;64851;50.232;20.364;2023-02-01T01:06:17;5.90;;;2.70;;
76117;SDS011;64851;50.232;20.364;2023-02-01T01:09:02;6.40;;;3.00;;
76117;SDS011;64851;50.232;20.364;2023-02-01T01:12:16;6.30;;;2.60;;
76117;SDS011;64851;50.232;20.364;2023-02-01T01:15:00;4.30;;;2.20;;
76117;SDS011;64851;50.232;20.364;2023-02-01T01:17:41;5.30;;;2.70;;
76117;SDS011;64851;50.232;20.364;2023-02-01T01:20:22;5.30;;;2.50;;
76117;SDS011;64851;50.232;20.364;2023-02-01T01:23:10;5.10;;;2.40;;
76117;SDS011;64851;50.232;20.364;2023-02-01T01:25:44;4.80;;;2.20;;
76117;SDS011;64851;50.232;20.364;2023-02-01T01:28:32;6.20;;;2.20;;
76117;SDS011;64851;50.232;20.364;2023-02-01T01:31:14;5.10;;;1.90;;
76117;SDS011;64851;50.232;20.364;2023-02-01T01:33:57;3.90;;;2.00;;
76117;SDS011;64851;50.232;20.364;2023-02-01T01:36:40;4.50;;;2.00;;
76117;SDS011;64851;50.232;20.364;2023-02-01T01:39:31;4.60;;;2.20;;
76117;SDS011;64851;50.232;20.364;2023-02-01T01:42:12;5.10;;;2.20;;
76117;SDS011;64851;50.232;20.364;2023-02-01T01:45:05;4.60;;;2.70;;
76117;SDS011;64851;50.232;20.364;2023-02-01T01:48:25;3.50;;;1.70;;
76117;SDS011;64851;50.232;20.364;2023-02-01T01:51:20;4.80;;;2.30;;
76117;SDS011;64851;50.232;20.364;2023-02-01T01:54:01;5.00;;;2.10;;
76117;SDS011;64851;50.232;20.364;2023-02-01T01:57:02;5.20;;;2.20;;
76117;SDS011;64851;50.232;20.364;2023-02-01T01:59:41;4.60;;;2.30;;
76117;SDS011;64851;50.232;20.364;2023-02-01T02:02:31;5.10;;;2.10;;
76117;SDS011;64851;50.232;20.364;2023-02-01T02:05:06;3.90;;;1.50;;
76117;SDS011;64851;50.232;20.364;2023-02-01T02:07:58;4.50;;;1.80;;
76117;SDS011;64851;50.232;20.364;2023-02-01T02:10:37;4.60;;;1.80;;
76117;SDS011;64851;50.232;20.364;2023-02-01T02:13:41;5.00;;;1.40;;
76117;SDS011;64851;50.232;20.364;2023-02-01T02:34:40;5.30;;;1.40;;
76117;SDS011;64851;50.232;20.364;2023-02-01T02:38:02;5.60;;;1.70;;
76117;SDS011;64851;50.232;20.364;2023-02-01T02:48:21;4.80;;;1.00;;
76117;SDS011;64851;50.232;20.364;2023-02-01T02:51:13;5.80;;;1.40;;
76117;SDS011;64851;50.232;20.364;2023-02-01T02:54:23;3.60;;;1.00;;
76117;SDS011;64851;50.232;20.364;2023-02-01T02:57:30;5.10;;;0.80;;
76117;SDS011;64851;50.232;20.364;2023-02-01T03:00:50;3.00;;;0.60;;
76117;SDS011;64851;50.232;20.364;2023-02-01T03:04:04;2.30;;;0.80;;
76117;SDS011;64851;50.232;20.364;2023-02-01T03:06:44;2.20;;;0.70;;
76117;SDS011;64851;50.232;20.364;2023-02-01T03:09:33;2.90;;;0.70;;
76117;SDS011;64851;50.232;20.364;2023-02-01T03:12:11;3.20;;;0.80;;
76117;SDS011;64851;50.232;20.364;2023-02-01T03:15:20;3.60;;;0.60;;
76117;SDS011;64851;50.232;20.364;2023-02-01T03:18:05;3.50;;;0.30;;
76117;SDS011;64851;50.232;20.364;2023-02-01T03:20:59;3.10;;;0.50;;
76117;SDS011;64851;50.232;20.364;2023-02-01T03:23:38;1.70;;;0.20;;
76117;SDS011;64851;50.232;20.364;2023-02-01T03:26:26;4.90;;;1.10;;
76117;SDS011;64851;50.232;20.364;2023-02-01T03:29:10;3.10;;;0.40;;
76117;SDS011;64851;50.232;20.364;2023-02-01T03:32:01;3.40;;;1.10;;
76117;SDS011;64851;50.232;20.364;2023-02-01T03:34:36;2.70;;;0.30;;
76117;SDS011;64851;50.232;20.364;2023-02-01T03:37:26;2.70;;;0.60;;
76117;SDS011;64851;50.232;20.364;2023-02-01T03:40:05;3.80;;;0.50;;
76117;SDS011;64851;50.232;20.364;2023-02-01T03:43:04;2.60;;;0.50;;
76117;SDS011;64851;50.232;20.364;2023-02-01T03:46:01;3.20;;;0.70;;
76117;SDS011;64851;50.232;20.364;2023-02-01T03:48:39;4.00;;;1.10;;
76117;SDS011;64851;50.232;20.364;2023-02-01T03:51:28;3.90;;;1.40;;
76117;SDS011;64851;50.232;20.364;2023-02-01T03:54:03;3.80;;;0.80;;
76117;SDS011;64851;50.232;20.364;2023-02-01T03:56:53;3.90;;;0.50;;
76117;SDS011;64851;50.232;20.364;2023-02-01T03:59:41;2.00;;;0.50;;
76117;SDS011;64851;50.232;20.364;2023-02-01T04:02:23;3.50;;;0.60;;
76117;SDS011;64851;50.232;20.364;2023-02-01T04:05:04;3.70;;;0.90;;
76117;SDS011;64851;50.232;20.364;2023-02-01T04:07:53;4.70;;;0.90;;
76117;SDS011;64851;50.232;20.364;2023-02-01T04:10:30;6.50;;;1.40;;
76117;SDS011;64851;50.232;20.364;2023-02-01T04:13:20;7.30;;;0.70;;
76117;SDS011;64851;50.232;20.364;2023-02-01T04:15:55;2.20;;;0.40;;
76117;SDS011;64851;50.232;20.364;2023-02-01T04:18:43;3.30;;;1.00;;
76117;SDS011;64851;50.232;20.364;2023-02-01T04:21:25;4.10;;;0.80;;
76117;SDS011;64851;50.232;20.364;2023-02-01T04:24:14;5.00;;;1.30;;
76117;SDS011;64851;50.232;20.364;2023-02-01T04:26:49;3.50;;;0.80;;
76117;SDS011;64851;50.232;20.364;2023-02-01T04:29:39;3.60;;;1.10;;
76117;SDS011;64851;50.232;20.364;2023-02-01T04:32:21;2.10;;;0.80;;
76117;SDS011;64851;50.232;20.364;2023-02-01T04:35:05;3.10;;;1.00;;
76117;SDS011;64851;50.232;20.364;2023-02-01T04:37:47;2.80;;;0.60;;
76117;SDS011;64851;50.232;20.364;2023-02-01T04:40:28;3.60;;;1.00;;
76117;SDS011;64851;50.232;20.364;2023-02-01T04:43:16;4.30;;;0.90;;
76117;SDS011;64851;50.232;20.364;2023-02-01T04:46:12;6.60;;;1.40;;
76117;SDS011;64851;50.232;20.364;2023-02-01T04:48:48;2.80;;;0.70;;
76117;SDS011;64851;50.232;20.364;2023-02-01T04:51:43;3.90;;;0.60;;
76117;SDS011;64851;50.232;20.364;2023-02-01T04:54:39;4.70;;;1.00;;
76117;SDS011;64851;50.232;20.364;2023-02-01T04:57:15;3.80;;;0.90;;
76117;SDS011;64851;50.232;20.364;2023-02-01T05:00:10;5.90;;;1.00;;
76117;SDS011;64851;50.232;20.364;2023-02-01T05:03:05;3.30;;;0.80;;
76117;SDS011;64851;50.232;20.364;2023-02-01T05:05:39;4.00;;;0.70;;
76117;SDS011;64851;50.232;20.364;2023-02-01T05:08:28;4.80;;;1.80;;
76117;SDS011;64851;50.232;20.364;2023-02-01T05:11:05;4.30;;;1.10;;
76117;SDS011;64851;50.232;20.364;2023-02-01T05:14:20;3.60;;;0.80;;
76117;SDS011;64851;50.232;20.364;2023-02-01T05:17:15;2.60;;;0.60;;
76117;SDS011;64851;50.232;20.364;2023-02-01T05:19:49;7.50;;;0.90;;
76117;SDS011;64851;50.232;20.364;2023-02-01T05:22:38;4.00;;;1.10;;
76117;SDS011;64851;50.232;20.364;2023-02-01T05:25:12;4.30;;;0.80;;
76117;SDS011;64851;50.232;20.364;2023-02-01T05:28:01;5.60;;;1.00;;
76117;SDS011;64851;50.232;20.364;2023-02-01T05:30:35;3.00;;;0.80;;
76117;SDS011;64851;50.232;20.364;2023-02-01T05:33:24;10.00;;;1.10;;
76117;SDS011;64851;50.232;20.364;2023-02-01T05:36:00;3.50;;;1.20;;
76117;SDS011;64851;50.232;20.364;2023-02-01T05:38:55;3.80;;;1.50;;
76117;SDS011;64851;50.232;20.364;2023-02-01T05:41:29;5.50;;;1.30;;
76117;SDS011;64851;50.232;20.364;2023-02-01T05:44:25;6.80;;;1.50;;
76117;SDS011;64851;50.232;20.364;2023-02-01T05:47:20;5.00;;;1.10;;
76117;SDS011;64851;50.232;20.364;2023-02-01T05:50:15;7.00;;;2.10;;
76117;SDS011;64851;50.232;20.364;2023-02-01T05:52:52;7.60;;;1.70;;
76117;SDS011;64851;50.232;20.364;2023-02-01T05:55:47;6.30;;;1.30;;
76117;SDS011;64851;50.232;20.364;2023-02-01T05:58:43;5.50;;;1.10;;
76117;SDS011;64851;50.232;20.364;2023-02-01T06:01:19;5.80;;;1.10;;
76117;SDS011;64851;50.232;20.364;2023-02-01T06:04:15;6.10;;;1.80;;
76117;SDS011;64851;50.232;20.364;2023-02-01T06:07:10;5.00;;;2.50;;
76117;SDS011;64851;50.232;20.364;2023-02-01T06:09:45;5.00;;;1.90;;
76117;SDS011;64851;50.232;20.364;2023-02-01T06:12:34;7.70;;;1.60;;
76117;SDS011;64851;50.232;20.364;2023-02-01T06:15:09;6.20;;;1.80;;
76117;SDS011;64851;50.232;20.364;2023-02-01T06:17:57;7.50;;;2.10;;
76117;SDS011;64851;50.232;20.364;2023-02-01T06:20:32;4.80;;;1.80;;
76117;SDS011;64851;50.232;20.364;2023-02-01T06:23:21;5.80;;;2.00;;
76117;SDS011;64851;50.232;20.364;2023-02-01T06:26:05;8.50;;;2.20;;
76117;SDS011;64851;50.232;20.364;2023-02-01T06:28:47;6.50;;;1.60;;
76117;SDS011;64851;50.232;20.364;2023-02-01T06:31:28;5.70;;;2.00;;
76117;SDS011;64851;50.232;20.364;2023-02-01T06:34:11;5.20;;;2.00;;
76117;SDS011;64851;50.232;20.364;2023-02-01T06:36:55;7.60;;;1.90;;
76117;SDS011;64851;50.232;20.364;2023-02-01T06:39:44;7.70;;;2.50;;
76117;SDS011;64851;50.232;20.364;2023-02-01T06:42:20;8.20;;;2.00;;
76117;SDS011;64851;50.232;20.364;2023-02-01T06:45:08;6.30;;;1.70;;
76117;SDS011;64851;50.232;20.364;2023-02-01T06:47:50;6.60;;;1.50;;
76117;SDS011;64851;50.232;20.364;2023-02-01T06:50:38;4.70;;;1.30;;
76117;SDS011;64851;50.232;20.364;2023-02-01T06:53:13;4.70;;;1.60;;
76117;SDS011;64851;50.232;20.364;2023-02-01T06:56:04;11.10;;;2.30;;
76117;SDS011;64851;50.232;20.364;2023-02-01T06:58:45;6.90;;;2.10;;
76117;SDS011;64851;50.232;20.364;2023-02-01T07:01:34;5.70;;;2.00;;
76117;SDS011;64851;50.232;20.364;2023-02-01T07:04:17;5.80;;;2.10;;
76117;SDS011;64851;50.232;20.364;2023-02-01T07:07:05;4.50;;;1.70;;
76117;SDS011;64851;50.232;20.364;2023-02-01T07:09:48;5.50;;;2.10;;
76117;SDS011;64851;50.232;20.364;2023-02-01T07:12:31;4.90;;;1.40;;
76117;SDS011;64851;50.232;20.364;2023-02-01T07:15:12;5.20;;;1.40;;
76117;SDS011;64851;50.232;20.364;2023-02-01T07:17:54;4.40;;;1.50;;
76117;SDS011;64851;50.232;20.364;2023-02-01T07:20:36;5.60;;;1.60;;
76117;SDS011;64851;50.232;20.364;2023-02-01T07:23:18;5.30;;;1.50;;
76117;SDS011;64851;50.232;20.364;2023-02-01T07:26:01;4.20;;;1.60;;
76117;SDS011;64851;50.232;20.364;2023-02-01T07:28:45;6.30;;;2.30;;
76117;SDS011;64851;50.232;20.364;2023-02-01T07:31:27;5.80;;;1.50;;
76117;SDS011;64851;50.232;20.364;2023-02-01T07:34:08;4.30;;;1.50;;
76117;SDS011;64851;50.232;20.364;2023-02-01T07:36:50;7.70;;;2.10;;
76117;SDS011;64851;50.232;20.364;2023-02-01T07:39:39;6.20;;;2.10;;
76117;SDS011;64851;50.232;20.364;2023-02-01T07:42:14;6.80;;;2.20;;
76117;SDS011;64851;50.232;20.364;2023-02-01T07:45:04;6.20;;;2.10;;
76117;SDS011;64851;50.232;20.364;2023-02-01T07:47:53;8.10;;;1.90;;
76117;SDS011;64851;50.232;20.364;2023-02-01T07:50:41;8.40;;;2.50;;
76117;SDS011;64851;50.232;20.364;2023-02-01T07:53:16;10.60;;;3.20;;
76117;SDS011;64851;50.232;20.364;2023-02-01T07:56:26;9.90;;;3.20;;
76117;SDS011;64851;50.232;20.364;2023-02-01T07:59:00;9.00;;;2.60;;
76117;SDS011;64851;50.232;20.364;2023-02-01T08:01:49;5.20;;;1.80;;
76117;SDS011;64851;50.232;20.364;2023-02-01T08:04:30;9.30;;;2.60;;
76117;SDS011;64851;50.232;20.364;2023-02-01T08:07:21;6.50;;;2.00;;
76117;SDS011;64851;50.232;20.364;2023-02-01T08:10:01;7.00;;;2.00;;
76117;SDS011;64851;50.232;20.364;2023-02-01T08:13:03;5.50;;;2.30;;
76117;SDS011;64851;50.232;20.364;2023-02-01T08:16:27;7.50;;;2.30;;
76117;SDS011;64851;50.232;20.364;2023-02-01T08:19:27;8.90;;;2.90;;
76117;SDS011;64851;50.232;20.364;2023-02-01T08:22:02;9.20;;;2.00;;
76117;SDS011;64851;50.232;20.364;2023-02-01T08:24:52;7.70;;;2.20;;
76117;SDS011;64851;50.232;20.364;2023-02-01T08:27:37;11.10;;;2.40;;
76117;SDS011;64851;50.232;20.364;2023-02-01T08:30:33;11.90;;;2.00;;
76117;SDS011;64851;50.232;20.364;2023-02-01T08:33:32;7.30;;;2.60;;
76117;SDS011;64851;50.232;20.364;2023-02-01T08:36:10;6.40;;;1.70;;
76117;SDS011;64851;50.232;20.364;2023-02-01T08:38:59;5.80;;;1.60;;
76117;SDS011;64851;50.232;20.364;2023-02-01T08:41:37;9.60;;;2.00;;
76117;SDS011;64851;50.232;20.364;2023-02-01T08:44:54;7.50;;;1.80;;
76117;SDS011;64851;50.232;20.364;2023-02-01T08:47:51;6.00;;;1.60;;
76117;SDS011;64851;50.232;20.364;2023-02-01T08:50:48;5.20;;;2.00;;
76117;SDS011;64851;50.232;20.364;2023-02-01T08:53:23;5.60;;;1.90;;
76117;SDS011;64851;50.232;20.364;2023-02-01T08:56:22;5.90;;;1.70;;
76117;SDS011;64851;50.232;20.364;2023-02-01T08:59:18;8.40;;;2.60;;
76117;SDS011;64851;50.232;20.364;2023-02-01T09:01:56;6.90;;;1.90;;
76117;SDS011;64851;50.232;20.364;2023-02-01T09:04:44;6.20;;;2.20;;
76117;SDS011;64851;50.232;20.364;2023-02-01T09:07:21;7.90;;;1.80;;
76117;SDS011;64851;50.232;20.364;2023-02-01T09:10:11;8.60;;;2.60;;
76117;SDS011;64851;50.232;20.364;2023-02-01T09:13:02;8.80;;;2.20;;
76117;SDS011;64851;50.232;20.364;2023-02-01T09:15:51;7.40;;;2.00;;
76117;SDS011;64851;50.232;20.364;2023-02-01T09:18:26;8.10;;;2.80;;
76117;SDS011;64851;50.232;20.364;2023-02-01T09:21:18;7.80;;;2.60;;
76117;SDS011;64851;50.232;20.364;2023-02-01T09:23:53;6.10;;;2.40;;
76117;SDS011;64851;50.232;20.364;2023-02-01T09:26:49;6.30;;;2.30;;
76117;SDS011;64851;50.232;20.364;2023-02-01T09:29:23;6.90;;;2.70;;
76117;SDS011;64851;50.232;20.364;2023-02-01T09:32:14;7.00;;;3.20;;
76117;SDS011;64851;50.232;20.364;2023-02-01T09:34:50;8.60;;;2.50;;
76117;SDS011;64851;50.232;20.364;2023-02-01T09:37:40;6.40;;;2.40;;
76117;SDS011;64851;50.232;20.364;2023-02-01T09:40:15;9.20;;;3.50;;
76117;SDS011;64851;50.232;20.364;2023-02-01T09:48:58;5.60;;;2.10;;
76117;SDS011;64851;50.232;20.364;2023-02-01T09:51:44;6.20;;;1.90;;
76117;SDS011;64851;50.232;20.364;2023-02-01T09:54:39;8.20;;;2.90;;
76117;SDS011;64851;50.232;20.364;2023-02-01T09:57:24;7.60;;;2.30;;
76117;SDS011;64851;50.232;20.364;2023-02-01T10:00:12;8.60;;;3.00;;
76117;SDS011;64851;50.232;20.364;2023-02-01T10:02:58;7.20;;;3.20;;
76117;SDS011;64851;50.232;20.364;2023-02-01T10:23:59;5.70;;;3.20;;
76117;SDS011;64851;50.232;20.364;2023-02-01T10:27:13;8.10;;;2.70;;
76117;SDS011;64851;50.232;20.364;2023-02-01T10:32:52;4.70;;;1.90;;
76117;SDS011;64851;50.232;20.364;2023-02-01T10:36:01;9.00;;;2.60;;
76117;SDS011;64851;50.232;20.364;2023-02-01T10:38:42;6.00;;;2.40;;
76117;SDS011;64851;50.232;20.364;2023-02-01T10:41:38;5.80;;;2.40;;
76117;SDS011;64851;50.232;20.364;2023-02-01T10:44:34;5.70;;;2.00;;
76117;SDS011;64851;50.232;20.364;2023-02-01T10:47:36;7.20;;;2.30;;
76117;SDS011;64851;50.232;20.364;2023-02-01T10:50:38;6.20;;;1.90;;
76117;SDS011;64851;50.232;20.364;2023-02-01T10:53:24;6.10;;;2.80;;
76117;SDS011;64851;50.232;20.364;2023-02-01T10:56:13;7.30;;;2.50;;
76117;SDS011;64851;50.232;20.364;2023-02-01T10:59:01;6.80;;;2.40;;
76117;SDS011;64851;50.232;20.364;2023-02-01T11:01:59;4.90;;;2.10;;
76117;SDS011;64851;50.232;20.364;2023-02-01T11:04:42;5.20;;;2.00;;
76117;SDS011;64851;50.232;20.364;2023-02-01T11:07:23;6.80;;;2.20;;
76117;SDS011;64851;50.232;20.364;2023-02-01T11:10:06;6.10;;;2.00;;
76117;SDS011;64851;50.232;20.364;2023-02-01T11:12:59;6.90;;;1.90;;
76117;SDS011;64851;50.232;20.364;2023-02-01T11:15:37;5.40;;;1.60;;
76117;SDS011;64851;50.232;20.364;2023-02-01T11:18:30;6.40;;;1.80;;
76117;SDS011;64851;50.232;20.364;2023-02-01T11:21:10;6.10;;;1.70;;
76117;SDS011;64851;50.232;20.364;2023-02-01T11:24:00;9.40;;;3.30;;
76117;SDS011;64851;50.232;20.364;2023-02-01T11:26:39;5.70;;;2.00;;
76117;SDS011;64851;50.232;20.364;2023-02-01T11:29:31;6.00;;;1.50;;
76117;SDS011;64851;50.232;20.364;2023-02-01T11:32:11;3.80;;;1.60;;
76117;SDS011;64851;50.232;20.364;2023-02-01T11:35:11;4.50;;;1.60;;
76117;SDS011;64851;50.232;20.364;2023-02-01T11:37:52;4.60;;;1.60;;
76117;SDS011;64851;50.232;20.364;2023-02-01T11:43:23;5.00;;;1.70;;
76117;SDS011;64851;50.232;20.364;2023-02-01T11:46:16;5.40;;;1.80;;
76117;SDS011;64851;50.232;20.364;2023-02-01T11:49:13;5.00;;;1.90;;
76117;SDS011;64851;50.232;20.364;2023-02-01T12:07:12;6.30;;;2.60;;
76117;SDS011;64851;50.232;20.364;2023-02-01T12:09:58;4.80;;;1.70;;
76117;SDS011;64851;50.232;20.364;2023-02-01T12:15:42;4.90;;;2.00;;
76117;SDS011;64851;50.232;20.364;2023-02-01T12:18:45;5.60;;;1.90;;
76117;SDS011;64851;50.232;20.364;2023-02-01T12:21:24;7.40;;;2.90;;
76117;SDS011;64851;50.232;20.364;2023-02-01T12:27:47;5.50;;;1.90;;
76117;SDS011;64851;50.232;20.364;2023-02-01T12:33:35;5.60;;;2.20;;
76117;SDS011;64851;50.232;20.364;2023-02-01T12:36:31;5.30;;;1.90;;
76117;SDS011;64851;50.232;20.364;2023-02-01T12:39:16;4.30;;;1.70;;
76117;SDS011;64851;50.232;20.364;2023-02-01T12:57:12;5.30;;;2.50;;
76117;SDS011;64851;50.232;20.364;2023-02-01T13:00:38;5.90;;;2.00;;
76117;SDS011;64851;50.232;20.364;2023-02-01T13:03:21;6.00;;;2.20;;
76117;SDS011;64851;50.232;20.364;2023-02-01T13:06:28;4.50;;;1.70;;
76117;SDS011;64851;50.232;20.364;2023-02-01T13:09:36;4.50;;;1.90;;
76117;SDS011;64851;50.232;20.364;2023-02-01T13:12:24;6.00;;;2.60;;
76117;SDS011;64851;50.232;20.364;2023-02-01T13:15:17;5.10;;;2.10;;
76117;SDS011;64851;50.232;20.364;2023-02-01T13:18:05;4.80;;;2.60;;
76117;SDS011;64851;50.232;20.364;2023-02-01T13:21:06;7.60;;;2.70;;
76117;SDS011;64851;50.232;20.364;2023-02-01T13:23:52;5.50;;;2.60;;
76117;SDS011;64851;50.232;20.364;2023-02-01T13:26:40;11.90;;;2.80;;
76117;SDS011;64851;50.232;20.364;2023-02-01T13:29:17;6.30;;;3.00;;
76117;SDS011;64851;50.232;20.364;2023-02-01T13:32:16;7.80;;;3.00;;
76117;SDS011;64851;50.232;20.364;2023-02-01T13:47:23;7.30;;;2.70;;
76117;SDS011;64851;50.232;20.364;2023-02-01T13:50:09;11.80;;;2.90;;
76117;SDS011;64851;50.232;20.364;2023-02-01T13:53:17;6.80;;;2.40;;
76117;SDS011;64851;50.232;20.364;2023-02-01T13:56:14;8.10;;;2.30;;
76117;SDS011;64851;50.232;20.364;2023-02-01T13:58:54;6.00;;;2.60;;
76117;SDS011;64851;50.232;20.364;2023-02-01T14:01:42;7.10;;;2.70;;
76117;SDS011;64851;50.232;20.364;2023-02-01T14:11:01;5.70;;;2.80;;
76117;SDS011;64851;50.232;20.364;2023-02-01T14:13:56;7.30;;;2.70;;
76117;SDS011;64851;50.232;20.364;2023-02-01T14:19:42;7.30;;;2.60;;
76117;SDS011;64851;50.232;20.364;2023-02-01T14:25:17;7.50;;;3.10;;
76117;SDS011;64851;50.232;20.364;2023-02-01T14:27:53;5.90;;;2.20;;
76117;SDS011;64851;50.232;20.364;2023-02-01T14:30:48;5.10;;;2.20;;
76117;SDS011;64851;50.232;20.364;2023-02-01T14:33:43;7.30;;;2.70;;
76117;SDS011;64851;50.232;20.364;2023-02-01T14:36:17;5.10;;;2.60;;
76117;SDS011;64851;50.232;20.364;2023-02-01T14:39:19;6.90;;;2.70;;
76117;SDS011;64851;50.232;20.364;2023-02-01T14:50:59;8.10;;;3.00;;
76117;SDS011;64851;50.232;20.364;2023-02-01T14:53:56;8.10;;;3.30;;
76117;SDS011;64851;50.232;20.364;2023-02-01T14:56:53;6.90;;;2.90;;
76117;SDS011;64851;50.232;20.364;2023-02-01T14:59:29;6.10;;;2.80;;
76117;SDS011;64851;50.232;20.364;2023-02-01T15:02:20;6.60;;;2.40;;
76117;SDS011;64851;50.232;20.364;2023-02-01T15:04:57;7.90;;;3.00;;
76117;SDS011;64851;50.232;20.364;2023-02-01T15:07:45;6.20;;;2.40;;
76117;SDS011;64851;50.232;20.364;2023-02-01T15:10:21;7.40;;;2.70;;
76117;SDS011;64851;50.232;20.364;2023-02-01T15:13:24;5.70;;;2.50;;
76117;SDS011;64851;50.232;20.364;2023-02-01T15:16:05;5.00;;;2.20;;
76117;SDS011;64851;50.232;20.364;2023-02-01T15:19:17;5.80;;;2.60;;
76117;SDS011;64851;50.232;20.364;2023-02-01T15:21:59;6.60;;;2.80;;
76117;SDS011;64851;50.232;20.364;2023-02-01T15:24:40;7.80;;;3.20;;
76117;SDS011;64851;50.232;20.364;2023-02-01T15:27:25;8.00;;;2.90;;
76117;SDS011;64851;50.232;20.364;2023-02-01T15:30:12;12.40;;;4.30;;
76117;SDS011;64851;50.232;20.364;2023-02-01T15:33:14;5.40;;;2.60;;
76117;SDS011;64851;50.232;20.364;2023-02-01T15:36:11;5.70;;;2.60;;
76117;SDS011;64851;50.232;20.364;2023-02-01T15:39:19;4.60;;;1.90;;
76117;SDS011;64851;50.232;20.364;2023-02-01T15:42:09;4.90;;;2.50;;
76117;SDS011;64851;50.232;20.364;2023-02-01T15:44:59;5.90;;;2.30;;
76117;SDS011;64851;50.232;20.364;2023-02-01T15:47:57;5.70;;;2.60;;
76117;SDS011;64851;50.232;20.364;2023-02-01T15:50:54;5.90;;;1.90;;
76117;SDS011;64851;50.232;20.364;2023-02-01T15:53:30;4.20;;;2.30;;
76117;SDS011;64851;50.232;20.364;2023-02-01T15:56:23;4.20;;;1.60;;
76117;SDS011;64851;50.232;20.364;2023-02-01T15:59:02;5.50;;;2.10;;
76117;SDS011;64851;50.232;20.364;2023-02-01T16:01:59;4.10;;;1.60;;
76117;SDS011;64851;50.232;20.364;2023-02-01T16:04:33;4.80;;;1.50;;
76117;SDS011;64851;50.232;20.364;2023-02-01T16:07:35;5.20;;;2.20;;
76117;SDS011;64851;50.232;20.364;2023-02-01T16:10:20;5.80;;;2.10;;
76117;SDS011;64851;50.232;20.364;2023-02-01T16:13:13;4.80;;;2.10;;
76117;SDS011;64851;50.232;20.364;2023-02-01T16:15:49;4.40;;;1.90;;
76117;SDS011;64851;50.232;20.364;2023-02-01T16:18:38;5.10;;;2.50;;
76117;SDS011;64851;50.232;20.364;2023-02-01T16:21:20;3.60;;;1.60;;
76117;SDS011;64851;50.232;20.364;2023-02-01T16:24:08;5.10;;;2.30;;
76117;SDS011;64851;50.232;20.364;2023-02-01T16:26:43;6.40;;;2.60;;
76117;SDS011;64851;50.232;20.364;2023-02-01T16:29:32;5.70;;;2.50;;
76117;SDS011;64851;50.232;20.364;2023-02-01T16:32:18;4.50;;;2.40;;
76117;SDS011;64851;50.232;20.364;2023-02-01T16:35:21;6.40;;;3.50;;
76117;SDS011;64851;50.232;20.364;2023-02-01T16:38:11;4.70;;;2.40;;
76117;SDS011;64851;50.232;20.364;2023-02-01T16:40:58;5.60;;;2.60;;
76117;SDS011;64851;50.232;20.364;2023-02-01T16:43:40;6.00;;;2.70;;
76117;SDS011;64851;50.232;20.364;2023-02-01T16:46:25;6.50;;;3.00;;
76117;SDS011;64851;50.232;20.364;2023-02-01T16:49:12;7.10;;;3.90;;
76117;SDS011;64851;50.232;20.364;2023-02-01T16:52:15;6.90;;;3.80;;
76117;SDS011;64851;50.232;20.364;2023-02-01T16:54:52;6.10;;;3.50;;
76117;SDS011;64851;50.232;20.364;2023-02-01T16:57:40;5.80;;;3.20;;
76117;SDS011;64851;50.232;20.364;2023-02-01T17:00:14;8.10;;;4.00;;
76117;SDS011;64851;50.232;20.364;2023-02-01T17:03:12;6.70;;;4.00;;
76117;SDS011;64851;50.232;20.364;2023-02-01T17:05:54;7.70;;;3.70;;
76117;SDS011;64851;50.232;20.364;2023-02-01T17:08:54;6.80;;;3.80;;
76117;SDS011;64851;50.232;20.364;2023-02-01T17:11:51;7.60;;;4.00;;
76117;SDS011;64851;50.232;20.364;2023-02-01T17:14:25;8.60;;;4.00;;
76117;SDS011;64851;50.232;20.364;2023-02-01T17:17:18;10.20;;;4.30;;
76117;SDS011;64851;50.232;20.364;2023-02-01T17:20:06;8.50;;;4.70;;
76117;SDS011;64851;50.232;20.364;2023-02-01T17:23:08;10.20;;;4.00;;
76117;SDS011;64851;50.232;20.364;2023-02-01T17:25:42;13.60;;;5.80;;
76117;SDS011;64851;50.232;20.364;2023-02-01T17:28:33;11.60;;;5.80;;
76117;SDS011;64851;50.232;20.364;2023-02-01T17:31:09;14.10;;;5.80;;
76117;SDS011;64851;50.232;20.364;2023-02-01T17:34:00;8.40;;;4.30;;
76117;SDS011;64851;50.232;20.364;2023-02-01T17:36:35;13.60;;;4.30;;
76117;SDS011;64851;50.232;20.364;2023-02-01T17:39:25;7.70;;;4.50;;
76117;SDS011;64851;50.232;20.364;2023-02-01T17:48:53;9.50;;;4.80;;
76117;SDS011;64851;50.232;20.364;2023-02-01T17:51:56;9.80;;;4.30;;
76117;SDS011;64851;50.232;20.364;2023-02-01T17:55:33;8.80;;;4.40;;
76117;SDS011;64851;50.232;20.364;2023-02-01T17:58:30;10.60;;;4.70;;
76117;SDS011;64851;50.232;20.364;2023-02-01T18:01:13;8.80;;;5.00;;
76117;SDS011;64851;50.232;20.364;2023-02-01T18:04:05;9.30;;;5.00;;
76117;SDS011;64851;50.232;20.364;2023-02-01T18:06:48;8.60;;;5.40;;
76117;SDS011;64851;50.232;20.364;2023-02-01T18:09:47;9.20;;;5.00;;
76117;SDS011;64851;50.232;20.364;2023-02-01T18:12:22;9.20;;;5.00;;
76117;SDS011;64851;50.232;20.364;2023-02-01T18:15:18;7.30;;;3.80;;
76117;SDS011;64851;50.232;20.364;2023-02-01T18:17:56;8.40;;;4.10;;
76117;SDS011;64851;50.232;20.364;2023-02-01T18:21:33;8.80;;;3.90;;
76117;SDS011;64851;50.232;20.364;2023-02-01T18:24:23;12.90;;;5.50;;
76117;SDS011;64851;50.232;20.364;2023-02-01T18:27:23;10.90;;;4.60;;
76117;SDS011;64851;50.232;20.364;2023-02-01T18:30:07;10.50;;;5.10;;
76117;SDS011;64851;50.232;20.364;2023-02-01T18:33:23;18.10;;;6.00;;
76117;SDS011;64851;50.232;20.364;2023-02-01T18:36:30;9.90;;;5.60;;
76117;SDS011;64851;50.232;20.364;2023-02-01T18:39:49;11.30;;;6.10;;
76117;SDS011;64851;50.232;20.364;2023-02-01T18:43:26;13.20;;;5.60;;
76117;SDS011;64851;50.232;20.364;2023-02-01T18:46:27;12.00;;;5.20;;
76117;SDS011;64851;50.232;20.364;2023-02-01T18:49:10;15.10;;;6.20;;
76117;SDS011;64851;50.232;20.364;2023-02-01T18:51:55;14.50;;;6.90;;
76117;SDS011;64851;50.232;20.364;2023-02-01T18:54:42;14.20;;;5.80;;